Time;durP1;ratioP1;P1;durP2;ratioP2;P2;SDS_P1;SDS_P2;PMS_P1;PMS_P2;Temp;Humidity;BMP_temperature;BMP_pressure;BME280_temperature;BME280_humidity;BME280_pressure;Samples;Min_cycle;Max_cycle;Signal;HPM_P1;HPM_P2
2022/01/29 00:00:55;;;;;;;4.17;3.77;;;;;;;6.69;51.87;95069.75;5031911;28;20192;-74
2022/01/29 00:03:23;;;;;;;4.03;3.30;;;;;;;6.78;51.76;95084.34;5032293;28;20250;-74
2022/01/29 00:05:50;;;;;;;4.37;3.70;;;;;;;6.74;51.61;95077.06;5032272;28;20219;-73
2022/01/29 00:08:17;;;;;;;4.47;3.97;;;;;;;6.79;51.74;95093.59;5032451;28;20198;-73
2022/01/29 00:10:47;;;;;;;5.97;3.57;;;;;;;6.56;51.87;95055.41;5031922;28;20196;-73
2022/01/29 00:13:14;;;;;;;4.30;3.47;;;;;;;6.79;51.82;95093.59;5032375;28;20218;-72
2022/01/29 00:15:40;;;;;;;4.60;3.73;;;;;;;6.79;51.86;95088.50;5031991;28;20188;-72
2022/01/29 00:18:08;;;;;;;4.33;3.67;;;;;;;6.80;51.86;95096.94;5032327;28;20642;-72
2022/01/29 00:20:36;;;;;;;5.17;3.90;;;;;;;6.79;51.82;95096.16;5030644;28;20202;-73
2022/01/29 00:23:03;;;;;;;4.60;3.60;;;;;;;6.79;51.81;95093.59;5013348;28;20196;-74
2022/01/29 00:25:30;;;;;;;4.63;3.90;;;;;;;6.79;52.00;95100.41;5013104;28;20559;-73
2022/01/29 00:27:59;;;;;;;5.03;3.70;;;;;;;6.78;51.88;95093.72;5013721;28;20243;-72
2022/01/29 00:30:31;;;;;;;5.23;4.27;;;;;;;6.79;51.98;95090.25;5012978;28;20216;-74
2022/01/29 00:32:58;;;;;;;5.80;4.03;;;;;;;6.82;51.95;95096.84;5014752;28;20188;-72
2022/01/29 00:35:25;;;;;;;5.60;3.93;;;;;;;6.81;52.14;95100.31;5012268;28;20196;-72
2022/01/29 00:37:53;;;;;;;5.73;4.67;;;;;;;6.79;52.18;95093.59;5012507;28;20219;-73
2022/01/29 00:40:21;;;;;;;5.73;4.20;;;;;;;6.83;52.03;95095.94;5011914;28;20635;-71
2022/01/29 00:42:49;;;;;;;6.17;4.60;;;;;;;6.81;52.18;95097.75;5012178;28;20637;-71
2022/01/29 00:45:16;;;;;;;5.50;4.90;;;;;;;6.82;52.25;95097.66;5011885;28;20188;-73
2022/01/29 00:47:43;;;;;;;5.70;4.67;;;;;;;6.82;52.25;95097.66;5011654;28;20200;-73
2022/01/29 00:50:12;;;;;;;5.87;4.57;;;;;;;6.82;52.41;95089.22;5011959;28;20185;-72
2022/01/29 00:52:39;;;;;;;6.87;4.70;;;;;;;6.81;52.48;95079.97;5012334;28;20187;-72
2022/01/29 00:55:09;;;;;;;6.47;5.50;;;;;;;6.64;52.73;95056.50;5011508;28;20197;-71
2022/01/29 00:57:38;;;;;;;6.47;4.67;;;;;;;6.81;52.74;95088.41;5011560;28;20184;-73
2022/01/29 01:00:07;;;;;;;6.70;5.07;;;;;;;6.78;52.87;95088.63;5017008;28;20227;-72
2022/01/29 01:02:33;;;;;;;5.53;4.90;;;;;;;6.76;53.08;95088.72;5021393;28;20207;-74
2022/01/29 01:05:00;;;;;;;5.83;5.10;;;;;;;6.77;53.00;95077.63;5012822;28;20193;-72
2022/01/29 01:07:28;;;;;;;8.67;5.40;;;;;;;6.60;53.23;95060.19;5010959;28;20234;-73
2022/01/29 01:09:54;;;;;;;6.13;5.00;;;;;;;6.77;53.33;95087.78;5011613;28;20192;-72
2022/01/29 01:12:23;;;;;;;7.90;5.50;;;;;;;6.78;53.27;95089.44;5011015;28;20192;-72
2022/01/29 01:14:50;;;;;;;8.03;5.20;;;;;;;6.76;53.58;95086.19;5012170;28;20211;-71
2022/01/29 01:17:18;;;;;;;5.77;4.63;;;;;;;6.76;53.54;95082.81;5011255;28;20199;-71
2022/01/29 01:19:45;;;;;;;7.83;5.20;;;;;;;6.76;53.62;95082.81;5011545;28;20196;-71
2022/01/29 01:22:14;;;;;;;7.00;5.27;;;;;;;6.64;53.68;95065.88;5011210;28;20244;-73
2022/01/29 01:24:41;;;;;;;6.57;5.03;;;;;;;6.75;53.64;95071.84;5012140;28;20748;-71
2022/01/29 01:27:08;;;;;;;6.00;4.87;;;;;;;6.76;53.67;95070.94;5030528;28;20235;-71
2022/01/29 01:29:36;;;;;;;7.00;4.87;;;;;;;6.74;53.70;95065.16;5030077;28;20238;-72
2022/01/29 01:32:04;;;;;;;8.97;4.60;;;;;;;6.74;53.74;95071.97;5031062;28;20191;-73
2022/01/29 01:34:37;;;;;;;6.70;4.60;;;;;;;6.73;53.88;95071.13;5030574;28;20192;-72
2022/01/29 01:37:09;;;;;;;7.47;5.03;;;;;;;6.74;53.94;95069.44;5029164;28;20551;-72
2022/01/29 01:39:38;;;;;;;6.53;4.43;;;;;;;6.72;54.04;95072.06;5030277;28;20196;-72
2022/01/29 01:42:07;;;;;;;4.97;4.30;;;;;;;6.72;54.10;95069.50;5030986;28;20267;-73
2022/01/29 01:44:36;;;;;;;7.20;4.57;;;;;;;6.71;54.15;95074.72;5030411;28;20271;-73
2022/01/29 01:47:04;;;;;;;7.63;4.63;;;;;;;6.68;54.06;95065.56;5026843;28;20216;-72
2022/01/29 01:49:31;;;;;;;4.87;4.10;;;;;;;6.70;54.26;95073.09;5030333;28;20187;-72
2022/01/29 01:51:58;;;;;;;5.43;4.30;;;;;;;6.59;54.42;95058.56;5030391;28;20274;-72
2022/01/29 01:54:25;;;;;;;5.23;4.53;;;;;;;6.71;54.33;95079.78;5029603;28;20571;-73
2022/01/29 01:56:52;;;;;;;6.20;4.50;;;;;;;6.70;54.40;95070.56;5028553;28;20195;-72
2022/01/29 01:59:19;;;;;;;6.93;4.40;;;;;;;6.52;54.45;95044.66;5029999;28;20207;-72
2022/01/29 02:01:47;;;;;;;7.43;4.63;;;;;;;6.70;54.59;95073.09;5030845;28;20187;-73
2022/01/29 02:04:14;;;;;;;5.57;4.63;;;;;;;6.66;54.51;95069.94;5030503;28;20200;-73
2022/01/29 02:06:41;;;;;;;6.70;4.20;;;;;;;6.69;54.47;95071.44;5030414;28;20227;-72
2022/01/29 02:09:08;;;;;;;5.00;4.47;;;;;;;6.62;54.57;95062.63;5028393;28;20203;-70
2022/01/29 02:11:38;;;;;;;6.23;4.43;;;;;;;6.66;54.69;95077.56;5029526;28;20192;-73
2022/01/29 02:14:05;;;;;;;5.90;4.20;;;;;;;6.69;54.60;95071.44;5030295;28;20188;-72
2022/01/29 02:16:32;;;;;;;5.47;4.10;;;;;;;6.69;54.76;95077.38;5030131;28;20192;-72
2022/01/29 02:19:00;;;;;;;5.40;4.20;;;;;;;6.64;54.94;95071.75;5035038;28;20568;-72
2022/01/29 02:21:29;;;;;;;4.70;4.17;;;;;;;6.68;54.97;95073.19;5031213;28;20227;-72
2022/01/29 02:23:55;;;;;;;4.33;3.93;;;;;;;6.69;54.92;95082.44;5029929;28;20663;-73
2022/01/29 02:26:22;;;;;;;6.53;5.20;;;;;;;6.71;54.77;95083.16;5029754;28;20231;-71
2022/01/29 02:28:49;;;;;;;7.00;3.87;;;;;;;6.71;54.75;95087.41;5029388;28;20222;-73
2022/01/29 02:31:16;;;;;;;5.23;4.10;;;;;;;6.25;54.95;95015.13;5029557;28;20195;-72
2022/01/29 02:33:44;;;;;;;5.60;4.20;;;;;;;6.71;54.99;95092.50;5030196;28;20203;-73
2022/01/29 02:36:10;;;;;;;5.13;4.30;;;;;;;6.72;54.97;95086.50;5030341;28;20249;-73
2022/01/29 02:38:39;;;;;;;4.90;4.03;;;;;;;6.73;54.85;95083.84;5030232;28;20192;-73
2022/01/29 02:41:06;;;;;;;5.00;4.30;;;;;;;6.73;54.70;95083.84;5030257;28;20190;-72
2022/01/29 02:43:39;;;;;;;4.50;3.53;;;;;;;6.70;54.98;95076.44;5030410;28;20219;-73
2022/01/29 02:46:19;;;;;;;7.00;4.50;;;;;;;6.71;55.04;95093.31;5029952;28;20192;-73
2022/01/29 02:48:46;;;;;;;8.03;4.47;;;;;;;6.72;55.05;95096.66;5030092;28;20191;-73
2022/01/29 02:51:13;;;;;;;6.83;4.50;;;;;;;6.69;55.18;95085.00;5029110;28;20192;-72
2022/01/29 02:53:42;;;;;;;5.30;4.20;;;;;;;6.69;54.94;95084.16;5028635;28;20808;-72
2022/01/29 02:56:09;;;;;;;4.20;3.57;;;;;;;6.73;55.14;95095.72;5030554;28;20188;-72
2022/01/29 02:58:36;;;;;;;8.33;4.47;;;;;;;6.74;55.07;95089.75;5030136;28;20192;-73
2022/01/29 03:01:03;;;;;;;4.63;4.07;;;;;;;6.74;55.13;95098.19;5029608;28;20632;-72
2022/01/29 03:03:30;;;;;;;4.80;4.40;;;;;;;6.75;55.04;95093.91;5029619;28;20188;-73
2022/01/29 03:05:57;;;;;;;5.00;3.80;;;;;;;6.72;55.14;95096.66;5031448;28;20191;-71
2022/01/29 03:08:24;;;;;;;7.53;4.37;;;;;;;6.74;55.18;95105.81;5033634;28;20227;-73
2022/01/29 03:10:52;;;;;;;8.03;4.40;;;;;;;6.74;55.21;95098.19;5033624;28;20187;-73
2022/01/29 03:13:19;;;;;;;5.00;4.10;;;;;;;6.74;55.04;95098.19;5033011;28;20682;-72
2022/01/29 03:15:46;;;;;;;4.40;4.00;;;;;;;6.76;55.21;95103.97;5035678;28;20218;-71
2022/01/29 03:18:12;;;;;;;4.87;3.80;;;;;;;6.77;55.06;95097.97;5035957;28;20191;-73
2022/01/29 03:20:39;;;;;;;5.20;4.70;;;;;;;6.77;55.03;95094.63;5033165;28;20629;-72
2022/01/29 03:23:06;;;;;;;4.73;4.10;;;;;;;6.74;55.13;95098.19;5033029;28;20199;-72
2022/01/29 03:25:33;;;;;;;5.00;4.40;;;;;;;6.76;54.98;95103.16;5033534;28;20180;-71
2022/01/29 03:28:01;;;;;;;6.87;5.00;;;;;;;6.75;54.96;95096.47;5032924;28;20238;-70
2022/01/29 03:30:28;;;;;;;5.93;5.30;;;;;;;6.75;54.87;95099.00;5033150;28;20195;-73
2022/01/29 03:32:55;;;;;;;5.70;5.03;;;;;;;6.74;54.74;95089.75;5032717;28;20196;-74
2022/01/29 03:35:21;;;;;;;7.13;5.27;;;;;;;6.69;54.78;95087.53;5033642;28;20190;-70
2022/01/29 03:37:48;;;;;;;6.47;5.50;;;;;;;6.72;54.52;95096.66;5032810;28;20195;-73
2022/01/29 03:40:15;;;;;;;6.57;5.70;;;;;;;6.72;54.50;95102.56;5033249;28;20187;-73
2022/01/29 03:42:46;;;;;;;5.53;4.50;;;;;;;6.64;54.36;95078.56;5033363;28;20202;-72
2022/01/29 03:45:19;;;;;;;5.73;4.90;;;;;;;6.69;54.50;95089.22;5033031;28;20187;-72
2022/01/29 03:47:46;;;;;;;4.63;4.17;;;;;;;6.68;54.46;95097.78;5032285;28;20223;-73
2022/01/29 03:50:12;;;;;;;4.30;3.90;;;;;;;6.66;54.50;95094.53;5033256;28;20180;-71
2022/01/29 03:52:39;;;;;;;5.30;4.30;;;;;;;6.66;54.31;95102.97;5033336;28;20204;-74
2022/01/29 03:55:06;;;;;;;7.33;4.73;;;;;;;6.51;54.30;95076.84;5031793;28;20187;-72
2022/01/29 03:57:33;;;;;;;4.90;4.00;;;;;;;6.64;54.35;95104.00;5032616;28;20195;-72
2022/01/29 04:00:01;;;;;;;4.80;4.10;;;;;;;6.62;54.37;95088.84;5032579;28;20196;-72
2022/01/29 04:02:29;;;;;;;4.33;3.80;;;;;;;6.60;54.59;95084.78;5033003;28;20183;-75
2022/01/29 04:04:56;;;;;;;4.50;3.93;;;;;;;6.60;54.45;95087.31;5031729;28;20191;-73
2022/01/29 04:07:23;;;;;;;6.03;4.80;;;;;;;6.59;54.50;95089.06;5032290;28;20247;-72
2022/01/29 04:09:51;;;;;;;4.90;4.20;;;;;;;6.53;54.45;95084.41;5032677;28;20266;-73
2022/01/29 04:12:19;;;;;;;4.20;3.90;;;;;;;6.28;54.45;95045.41;5032653;28;20584;-71
2022/01/29 04:14:45;;;;;;;5.60;4.30;;;;;;;6.58;54.55;95081.53;5032852;28;20756;-72
2022/01/29 04:17:12;;;;;;;5.20;4.33;;;;;;;6.56;54.51;95081.63;5033174;28;20199;-74
2022/01/29 04:19:40;;;;;;;4.73;4.27;;;;;;;6.56;54.47;95081.63;5032832;28;20191;-73
2022/01/29 04:22:08;;;;;;;5.43;3.43;;;;;;;6.57;54.56;95085.00;5033213;28;20640;-73
2022/01/29 04:24:35;;;;;;;4.60;3.90;;;;;;;6.53;54.63;95079.31;5031383;28;20190;-73
2022/01/29 04:27:04;;;;;;;4.20;3.80;;;;;;;6.41;54.63;95060.63;5031696;28;20590;-71
2022/01/29 04:29:41;;;;;;;5.13;4.10;;;;;;;6.53;54.71;95085.22;5031615;28;20227;-70
2022/01/29 04:32:12;;;;;;;5.27;4.77;;;;;;;6.51;54.59;95084.47;5032407;28;20191;-73
2022/01/29 04:34:40;;;;;;;5.33;4.10;;;;;;;6.52;54.63;95088.66;5031524;28;20184;-73
2022/01/29 04:37:07;;;;;;;7.53;4.67;;;;;;;6.51;54.65;95089.56;5032337;28;20624;-71
2022/01/29 04:39:34;;;;;;;5.63;4.57;;;;;;;6.50;54.75;95090.47;5030291;28;20188;-72
2022/01/29 04:42:00;;;;;;;4.73;4.27;;;;;;;6.50;54.61;95092.22;5031679;28;20640;-71
2022/01/29 04:44:27;;;;;;;4.83;4.43;;;;;;;6.49;54.50;95105.84;5031792;28;20629;-70
2022/01/29 04:46:54;;;;;;;5.33;4.30;;;;;;;6.48;54.46;95099.16;5030914;28;20227;-72
2022/01/29 04:49:21;;;;;;;4.77;4.20;;;;;;;6.47;54.54;95097.50;5031545;28;20655;-72
2022/01/29 04:51:49;;;;;;;4.20;3.80;;;;;;;6.46;54.76;95100.97;5031636;28;20192;-72
2022/01/29 04:54:16;;;;;;;5.07;3.97;;;;;;;6.46;54.54;95100.97;5031420;28;20200;-72
2022/01/29 04:56:42;;;;;;;5.37;4.50;;;;;;;6.46;54.39;95100.97;5038237;28;20191;-73
2022/01/29 04:59:09;;;;;;;4.87;4.10;;;;;;;6.46;54.38;95096.69;5039434;28;20184;-71
2022/01/29 05:01:36;;;;;;;4.07;3.77;;;;;;;6.45;54.45;95101.88;5032611;28;20218;-71
2022/01/29 05:04:03;;;;;;;4.63;4.00;;;;;;;6.45;54.53;95112.84;5031371;28;20716;-73
2022/01/29 05:06:29;;;;;;;5.37;4.77;;;;;;;6.45;54.68;95109.50;5030821;28;20196;-73
2022/01/29 05:08:58;;;;;;;4.50;4.00;;;;;;;6.46;54.67;95122.09;5030705;28;20223;-72
2022/01/29 05:11:24;;;;;;;5.13;4.30;;;;;;;6.48;54.56;95114.38;5031288;28;20299;-72
2022/01/29 05:13:51;;;;;;;4.70;4.27;;;;;;;6.48;54.71;95111.84;5032079;28;20187;-71
2022/01/29 05:16:42;;;;;;;5.83;4.47;;;;;;;6.47;54.62;95111.00;5033493;28;20195;-71
2022/01/29 05:27:23;;;;;;;4.87;4.40;;;;;;;6.50;54.88;95110.81;5030112;28;20270;-72
2022/01/29 05:29:50;;;;;;;8.53;5.57;;;;;;;6.50;55.07;95104.91;5029875;28;20223;-72
2022/01/29 05:32:17;;;;;;;5.23;4.73;;;;;;;6.50;55.09;95105.72;5031034;28;20197;-73
2022/01/29 05:34:43;;;;;;;5.87;5.17;;;;;;;6.41;55.29;95103.81;5031251;28;20188;-73
2022/01/29 05:37:10;;;;;;;6.80;4.90;;;;;;;6.49;55.21;95116.00;5030036;28;20191;-72
2022/01/29 05:39:38;;;;;;;7.37;5.40;;;;;;;6.41;55.51;95110.63;5030465;28;20250;-72
2022/01/29 05:42:06;;;;;;;6.17;4.87;;;;;;;6.45;55.58;95123.00;5030817;28;20188;-72
2022/01/29 05:44:34;;;;;;;8.03;5.37;;;;;;;6.44;55.26;95130.75;5030539;28;20218;-74
2022/01/29 05:47:01;;;;;;;6.33;5.47;;;;;;;6.43;55.49;95136.72;5030318;28;20187;-73
2022/01/29 05:49:27;;;;;;;6.07;5.20;;;;;;;6.42;55.75;95135.09;5030279;28;20195;-71
2022/01/29 05:51:54;;;;;;;5.63;4.77;;;;;;;6.39;55.85;95138.69;5029947;28;20693;-73
2022/01/29 05:54:21;;;;;;;7.13;5.10;;;;;;;6.42;55.77;95146.06;5030675;28;20195;-72
2022/01/29 05:56:49;;;;;;;6.40;4.90;;;;;;;6.40;55.94;95144.56;5029905;28;20184;-74
2022/01/29 05:59:16;;;;;;;5.60;4.67;;;;;;;6.44;55.81;95146.00;5030177;28;20191;-73
2022/01/29 06:01:43;;;;;;;5.00;4.47;;;;;;;6.39;55.88;95148.84;5029997;28;20223;-75
2022/01/29 06:04:10;;;;;;;6.60;4.70;;;;;;;6.46;55.99;95167.00;5030420;28;20662;-74
2022/01/29 06:06:37;;;;;;;5.17;4.67;;;;;;;6.45;56.06;95161.13;5029987;28;20692;-74
2022/01/29 06:09:04;;;;;;;6.27;4.67;;;;;;;6.47;56.06;95161.81;5029694;28;20682;-74
2022/01/29 06:11:32;;;;;;;6.23;4.57;;;;;;;6.49;56.02;95171.91;5030365;28;20746;-73
2022/01/29 06:14:00;;;;;;;5.90;4.93;;;;;;;6.50;56.11;95170.97;5029795;28;20191;-74
2022/01/29 06:16:27;;;;;;;7.07;4.97;;;;;;;6.52;56.10;95171.72;5030054;28;20257;-73
2022/01/29 06:18:55;;;;;;;6.13;5.30;;;;;;;6.53;56.05;95176.66;5029671;28;20192;-74
2022/01/29 06:21:22;;;;;;;5.23;4.70;;;;;;;6.59;55.94;95178.00;5029710;28;20622;-73
2022/01/29 06:23:49;;;;;;;6.73;4.87;;;;;;;6.64;55.90;95177.69;5029900;28;20192;-73
2022/01/29 06:26:16;;;;;;;6.10;5.10;;;;;;;6.65;55.79;95169.97;5030292;28;20195;-73
2022/01/29 06:28:44;;;;;;;5.97;4.87;;;;;;;6.79;55.79;95167.31;5029490;28;20244;-74
2022/01/29 06:31:12;;;;;;;6.73;5.33;;;;;;;6.93;55.30;95174.00;5029677;28;20192;-73
2022/01/29 06:33:39;;;;;;;5.50;5.00;;;;;;;6.89;55.24;95141.28;5029105;28;20813;-73
2022/01/29 06:36:06;;;;;;;6.40;5.20;;;;;;;7.19;55.05;95164.59;5029974;28;20196;-72
2022/01/29 06:38:33;;;;;;;7.33;5.20;;;;;;;7.30;55.00;95166.41;5029917;28;20276;-70
2022/01/29 06:41:02;;;;;;;6.50;5.20;;;;;;;7.44;54.86;95166.25;5031632;28;20667;-73
2022/01/29 06:43:29;;;;;;;6.97;5.47;;;;;;;7.68;54.42;95161.16;5033736;28;20625;-73
2022/01/29 06:45:56;;;;;;;6.43;5.27;;;;;;;7.96;54.14;95182.94;5033905;28;20253;-72
2022/01/29 06:48:24;;;;;;;6.33;4.97;;;;;;;8.14;54.18;95185.09;5034392;28;20211;-74
2022/01/29 06:50:51;;;;;;;5.77;4.87;;;;;;;8.28;53.82;95183.16;5033499;28;20187;-74
2022/01/29 06:53:18;;;;;;;5.83;4.97;;;;;;;8.51;53.42;95183.28;5033379;28;20191;-71
2022/01/29 06:55:45;;;;;;;5.20;4.70;;;;;;;8.68;53.41;95195.59;5033430;28;20195;-75
2022/01/29 06:58:12;;;;;;;5.23;4.33;;;;;;;8.82;53.05;95197.09;5033822;28;20188;-71
2022/01/29 07:00:38;;;;;;;4.97;4.47;;;;;;;8.93;52.70;95203.94;5033173;28;20195;-71
2022/01/29 07:03:05;;;;;;;5.27;4.63;;;;;;;9.00;52.77;95202.56;5033878;28;20192;-73
2022/01/29 07:05:33;;;;;;;5.10;4.23;;;;;;;9.06;52.45;95207.19;5033121;28;20195;-73
2022/01/29 07:08:00;;;;;;;6.53;4.73;;;;;;;9.12;52.23;95206.75;5033646;28;20216;-73
2022/01/29 07:10:27;;;;;;;6.87;4.23;;;;;;;9.17;51.98;95201.28;5033460;28;20196;-74
2022/01/29 07:12:54;;;;;;;4.87;4.33;;;;;;;9.08;51.98;95186.69;5040461;28;20187;-73
2022/01/29 07:15:20;;;;;;;4.77;4.37;;;;;;;9.24;51.91;95207.53;5038567;28;20195;-73
2022/01/29 07:17:47;;;;;;;5.37;4.37;;;;;;;9.26;51.69;95215.91;5033455;28;20199;-74
2022/01/29 07:20:14;;;;;;;4.77;4.30;;;;;;;9.27;51.84;95220.06;5033310;28;20195;-72
2022/01/29 07:22:42;;;;;;;5.97;4.60;;;;;;;9.28;51.65;95216.56;5033027;28;20194;-72
2022/01/29 07:25:09;;;;;;;4.77;4.37;;;;;;;9.29;51.58;95208.03;5032729;28;20199;-72
2022/01/29 07:27:36;;;;;;;5.13;4.20;;;;;;;9.32;51.49;95217.97;5032738;28;20187;-73
2022/01/29 07:30:04;;;;;;;4.97;4.00;;;;;;;9.28;51.39;95209.75;4993852;28;20203;-72
2022/01/29 07:32:31;;;;;;;5.23;4.47;;;;;;;9.35;51.39;95217.75;4993535;28;20193;-74
2022/01/29 07:34:58;;;;;;;6.60;4.00;;;;;;;9.41;51.20;95221.56;4992924;28;20237;-72
2022/01/29 07:37:25;;;;;;;7.37;4.17;;;;;;;9.45;51.09;95228.88;4993511;28;20189;-73
2022/01/29 07:39:53;;;;;;;6.37;4.90;;;;;;;9.52;50.88;95229.22;4993193;28;20197;-72
2022/01/29 07:42:20;;;;;;;5.60;4.60;;;;;;;9.59;50.89;95235.50;4993377;28;20649;-73
2022/01/29 07:44:46;;;;;;;4.03;3.73;;;;;;;9.63;50.75;95234.31;4993334;28;20300;-73
2022/01/29 07:47:13;;;;;;;5.37;4.60;;;;;;;9.68;50.45;95244.19;4987913;28;20205;-73
2022/01/29 07:49:40;;;;;;;5.53;4.37;;;;;;;9.50;50.75;95208.94;4971411;28;20229;-74
2022/01/29 07:52:07;;;;;;;6.63;4.70;;;;;;;9.65;50.59;95239.31;4970851;28;20193;-74
2022/01/29 07:54:34;;;;;;;6.03;5.03;;;;;;;9.62;50.68;95240.34;4971446;28;20265;-78
2022/01/29 07:57:02;;;;;;;5.10;4.53;;;;;;;9.58;50.58;95241.50;4983052;28;20205;-75
2022/01/29 07:59:29;;;;;;;6.10;4.70;;;;;;;9.55;50.60;95237.47;4990923;28;20196;-75
2022/01/29 08:01:56;;;;;;;5.47;4.93;;;;;;;9.51;50.63;95238.63;4990920;28;20189;-72
2022/01/29 08:04:24;;;;;;;5.80;5.13;;;;;;;9.48;50.66;95241.41;4990114;28;20200;-75
2022/01/29 08:06:51;;;;;;;5.43;4.50;;;;;;;9.32;50.45;95233.28;4990502;28;20582;-75
2022/01/29 08:09:17;;;;;;;5.10;4.57;;;;;;;9.42;50.41;95256.41;4990660;28;20216;-76
2022/01/29 08:11:44;;;;;;;6.07;4.67;;;;;;;9.39;50.49;95254.06;4989950;28;20209;-74
2022/01/29 08:14:12;;;;;;;4.80;4.27;;;;;;;9.40;50.54;95250.56;4989602;28;20193;-73
2022/01/29 08:16:39;;;;;;;5.13;4.30;;;;;;;9.41;50.39;95247.09;4990825;28;20184;-73
2022/01/29 08:19:06;;;;;;;5.63;4.40;;;;;;;9.43;50.44;95250.34;4990138;28;20680;-73
2022/01/29 08:21:33;;;;;;;4.20;3.80;;;;;;;9.31;50.44;95244.44;4990596;28;20201;-74
2022/01/29 08:24:00;;;;;;;4.73;3.83;;;;;;;9.45;50.24;95253.59;4989710;28;20645;-74
2022/01/29 08:26:28;;;;;;;5.47;4.67;;;;;;;9.47;50.29;95267.88;4988007;28;20193;-74
2022/01/29 08:28:54;;;;;;;4.87;3.93;;;;;;;9.48;50.27;95256.72;5010616;28;20688;-75
2022/01/29 08:31:22;;;;;;;5.10;4.60;;;;;;;9.48;50.33;95253.38;5029812;28;20198;-74
2022/01/29 08:33:49;;;;;;;6.33;4.40;;;;;;;9.60;50.25;95256.72;5029762;28;20356;-76
2022/01/29 08:36:16;;;;;;;5.70;4.80;;;;;;;9.67;50.12;95257.84;5029104;28;20902;-73
2022/01/29 08:38:43;;;;;;;6.10;4.90;;;;;;;9.77;49.86;95261.34;5029431;28;20190;-73
2022/01/29 08:41:10;;;;;;;9.53;4.23;;;;;;;9.94;56.19;95270.25;5029506;28;20187;-71
2022/01/29 08:43:36;;;;;;;6.30;3.43;;;;;;;10.60;92.78;95265.88;5029281;28;20199;-73
2022/01/29 08:46:03;;;;;;;4.63;4.17;;;;;;;10.99;83.03;95253.31;5029214;28;20210;-74
2022/01/29 08:48:31;;;;;;;3.83;3.53;;;;;;;11.37;74.07;95268.06;5029513;28;20262;-76
2022/01/29 08:50:58;;;;;;;4.77;3.87;;;;;;;11.54;68.39;95266.66;5028614;28;20703;-76
2022/01/29 08:53:25;;;;;;;6.33;4.60;;;;;;;11.62;64.50;95273.72;5031795;28;20195;-76
2022/01/29 08:55:52;;;;;;;4.63;4.00;;;;;;;11.57;62.38;95263.81;5033833;28;20188;-76
2022/01/29 08:58:19;;;;;;;4.83;4.33;;;;;;;11.71;59.72;95270.34;5032665;28;20194;-76
2022/01/29 09:00:47;;;;;;;6.00;4.03;;;;;;;11.81;57.60;95266.88;5028384;28;20543;-76
2022/01/29 09:03:15;;;;;;;4.87;4.27;;;;;;;12.02;55.68;95279.63;5028556;28;20236;-75
2022/01/29 09:05:45;;;;;;;5.90;4.30;;;;;;;12.15;54.05;95278.59;5029050;28;20253;-75
2022/01/29 09:08:14;;;;;;;5.70;4.23;;;;;;;11.98;52.95;95247.50;5029298;28;20184;-77
2022/01/29 09:10:42;;;;;;;5.13;4.70;;;;;;;12.31;51.83;95289.13;5029550;28;20192;-77
2022/01/29 09:13:11;;;;;;;8.77;4.67;;;;;;;12.28;51.27;95279.94;5029144;28;20548;-77
2022/01/29 09:15:38;;;;;;;5.10;4.47;;;;;;;12.31;50.86;95286.56;5029279;28;20637;-75
2022/01/29 09:18:05;;;;;;;6.97;4.60;;;;;;;12.09;50.35;95259.41;5028793;28;20203;-74
2022/01/29 09:20:32;;;;;;;5.27;4.57;;;;;;;12.21;49.94;95283.97;5028749;28;20199;-76
2022/01/29 09:23:00;;;;;;;4.93;4.20;;;;;;;11.76;49.71;95220.34;5027084;28;20203;-76
2022/01/29 09:25:27;;;;;;;5.77;3.90;;;;;;;12.09;49.32;95268.84;5028412;28;20199;-75
2022/01/29 09:27:54;;;;;;;5.70;4.13;;;;;;;12.05;49.18;95276.81;5028118;28;20187;-76
2022/01/29 09:30:21;;;;;;;6.10;4.40;;;;;;;12.06;48.98;95280.19;5028418;28;20219;-77
2022/01/29 09:32:48;;;;;;;5.27;4.00;;;;;;;12.04;48.76;95282.88;5028015;28;20183;-76
2022/01/29 09:35:15;;;;;;;4.97;4.30;;;;;;;12.02;48.35;95277.06;5028140;28;20187;-76
2022/01/29 09:37:42;;;;;;;4.07;3.77;;;;;;;11.96;48.36;95266.53;5028619;28;20198;-78
2022/01/29 09:40:11;;;;;;;4.43;4.10;;;;;;;12.03;48.27;95285.56;5027800;28;20211;-74
2022/01/29 09:42:39;;;;;;;4.87;4.37;;;;;;;12.07;48.16;95283.56;5028119;28;20199;-77
2022/01/29 09:45:08;;;;;;;5.13;4.73;;;;;;;11.97;47.80;95260.47;5027974;28;20203;-72
2022/01/29 09:47:36;;;;;;;7.40;4.73;;;;;;;12.15;47.53;95281.16;5027910;28;20200;-78
2022/01/29 09:50:04;;;;;;;6.23;5.03;;;;;;;12.19;47.42;95278.19;5027835;28;20211;-76
2022/01/29 09:52:31;;;;;;;7.23;5.33;;;;;;;12.07;47.32;95251.03;5030912;28;20191;-77
2022/01/29 09:54:59;;;;;;;6.30;5.23;;;;;;;12.25;47.24;95275.06;5030394;28;20180;-78
2022/01/29 09:57:27;;;;;;;5.53;4.20;;;;;;;12.31;47.13;95268.63;5029989;28;20278;-74
2022/01/29 09:59:54;;;;;;;5.57;5.00;;;;;;;12.19;46.75;95252.53;5029580;28;20192;-75
2022/01/29 10:02:22;;;;;;;4.77;4.20;;;;;;;12.36;46.60;95270.78;5030038;28;20195;-77
2022/01/29 10:04:50;;;;;;;5.30;4.80;;;;;;;12.29;46.75;95257.66;5030118;28;20191;-74
2022/01/29 10:07:18;;;;;;;6.43;4.80;;;;;;;12.40;46.36;95277.25;5030114;28;20184;-70
2022/01/29 10:09:46;;;;;;;5.77;4.63;;;;;;;12.38;46.40;95282.50;5030227;28;20234;-73
2022/01/29 10:12:27;;;;;;;4.93;4.30;;;;;;;12.34;46.29;95281.16;5029584;28;20187;-72
2022/01/29 10:14:57;;;;;;;5.80;4.70;;;;;;;12.25;46.11;95266.56;5029846;28;20269;-71
2022/01/29 10:17:42;;;;;;;6.57;4.73;;;;;;;12.24;46.09;95277.78;5029957;28;20207;-72
2022/01/29 10:20:18;;;;;;;9.00;4.77;;;;;;;12.08;46.26;95262.91;5029928;28;20196;-72
2022/01/29 10:22:46;;;;;;;5.47;4.83;;;;;;;11.97;46.18;95260.47;5028533;28;20201;-74
2022/01/29 10:25:15;;;;;;;5.30;4.77;;;;;;;12.01;46.27;95283.16;5029795;28;20590;-72
2022/01/29 10:28:06;;;;;;;5.57;4.23;;;;;;;11.94;46.42;95274.34;5029765;28;20195;-73
2022/01/29 10:30:36;;;;;;;5.53;4.90;;;;;;;11.87;46.48;95278.38;5029704;28;20220;-73
2022/01/29 10:33:17;;;;;;;5.00;4.50;;;;;;;11.81;46.26;95272.00;5027658;28;20192;-71
2022/01/29 10:35:45;;;;;;;5.97;5.37;;;;;;;11.76;46.42;95281.03;5029039;28;20211;-71
2022/01/29 10:38:12;;;;;;;5.17;4.50;;;;;;;11.69;46.53;95280.72;5029445;28;20195;-71
2022/01/29 10:40:39;;;;;;;4.37;3.97;;;;;;;11.67;46.63;95279.25;5029756;28;20234;-72
2022/01/29 10:43:06;;;;;;;4.93;4.43;;;;;;;11.62;46.55;95278.81;5028472;28;20681;-75
2022/01/29 10:45:35;;;;;;;5.27;4.27;;;;;;;11.58;46.53;95280.84;5029381;28;20223;-75
2022/01/29 10:48:06;;;;;;;8.93;4.93;;;;;;;11.50;46.53;95271.22;5028987;28;20191;-76
2022/01/29 10:50:34;;;;;;;6.27;5.67;;;;;;;11.55;46.63;95286.19;5030343;28;20227;-74
2022/01/29 10:53:25;;;;;;;6.10;5.37;;;;;;;11.55;46.64;95281.88;5029342;28;20219;-73
2022/01/29 10:55:58;;;;;;;6.20;5.40;;;;;;;11.48;46.71;95274.84;5009758;28;20238;-76
2022/01/29 10:58:25;;;;;;;5.20;4.70;;;;;;;11.52;46.77;95286.44;5009692;28;20188;-77
2022/01/29 11:01:15;;;;;;;6.97;5.73;;;;;;;11.55;46.51;95283.66;5010169;28;20201;-75
2022/01/29 11:03:42;;;;;;;7.37;5.03;;;;;;;11.56;46.73;95280.94;5012482;28;20631;-74
2022/01/29 11:06:11;;;;;;;6.83;5.30;;;;;;;11.54;46.80;95280.28;5029293;28;20191;-72
2022/01/29 11:08:40;;;;;;;6.07;5.47;;;;;;;11.56;46.78;95285.25;5029626;28;20188;-76
2022/01/29 11:11:07;;;;;;;7.30;5.90;;;;;;;11.55;46.88;95270.84;5029175;28;20350;-74
2022/01/29 11:13:35;;;;;;;7.50;5.17;;;;;;;11.56;46.96;95269.88;5029357;28;20642;-75
2022/01/29 11:16:03;;;;;;;12.13;5.90;;;;;;;11.56;47.06;95257.06;5029092;28;20191;-73
2022/01/29 11:18:32;;;;;;;5.70;5.10;;;;;;;11.59;46.71;95259.38;5029493;28;20183;-75
2022/01/29 11:21:00;;;;;;;7.43;6.57;;;;;;;11.62;46.90;95255.78;5029422;28;20258;-76
2022/01/29 11:23:28;;;;;;;10.33;6.07;;;;;;;11.64;46.89;95257.25;5029462;28;20265;-75
2022/01/29 11:25:56;;;;;;;8.17;6.67;;;;;;;11.69;47.14;95262.78;5028999;28;20241;-77
2022/01/29 11:28:26;;;;;;;7.60;6.33;;;;;;;11.73;46.84;95264.16;5031179;28;20290;-75
2022/01/29 11:31:20;;;;;;;6.33;5.73;;;;;;;11.77;46.97;95267.25;5033421;28;20214;-75
2022/01/29 11:34:22;;;;;;;7.37;5.80;;;;;;;11.80;46.78;95259.31;5032942;28;20195;-75
2022/01/29 11:37:06;;;;;;;7.77;5.67;;;;;;;11.70;46.67;95248.22;5032193;28;20249;-72
2022/01/29 11:39:36;;;;;;;7.17;5.80;;;;;;;11.81;46.89;95261.75;5033506;28;20188;-74
2022/01/29 11:42:31;;;;;;;5.87;5.27;;;;;;;11.83;46.75;95260.81;5032314;28;20242;-74
2022/01/29 11:45:19;;;;;;;6.40;5.40;;;;;;;11.84;46.78;95260.72;5032792;28;20184;-75
2022/01/29 11:47:49;;;;;;;6.93;5.37;;;;;;;11.85;46.76;95258.97;5032547;28;20722;-75
2022/01/29 11:50:45;;;;;;;8.43;5.43;;;;;;;11.87;46.73;95267.31;5032606;28;20220;-73
2022/01/29 11:53:14;;;;;;;7.37;6.30;;;;;;;11.84;46.76;95260.72;5032167;28;20188;-73